createdAt,value
2023-04-17T00:03:33.271Z,62.44
2023-04-17T00:06:01.184Z,61.91
2023-04-17T00:08:28.571Z,61.51
2023-04-17T00:11:07.227Z,61.81
2023-04-17T00:13:36.541Z,65.55
2023-04-17T00:16:04.054Z,65.27
2023-04-17T00:18:31.940Z,63.50
2023-04-17T00:21:00.859Z,62.37
2023-04-17T00:23:27.873Z,64.14
2023-04-17T00:25:54.721Z,64.28
2023-04-17T00:28:21.627Z,62.28
2023-04-17T00:30:48.928Z,62.05
2023-04-17T00:33:16.772Z,61.59
2023-04-17T00:35:43.726Z,62.10
2023-04-17T00:38:10.848Z,62.53
2023-04-17T00:40:38.090Z,62.44
2023-04-17T00:43:06.867Z,61.77
2023-04-17T00:45:34.987Z,62.08
2023-04-17T00:48:05.011Z,61.88
2023-04-17T00:50:32.207Z,61.97
2023-04-17T00:53:00.689Z,62.37
2023-04-17T00:55:32.275Z,63.60
2023-04-17T00:58:00.884Z,62.74
2023-04-17T01:00:27.968Z,63.31
2023-04-17T01:03:00.728Z,63.54
2023-04-17T01:05:28.076Z,64.31
2023-04-17T01:07:57.862Z,63.96
2023-04-17T01:10:25.228Z,64.22
2023-04-17T01:13:06.349Z,64.78
2023-04-17T01:15:37.173Z,64.61
2023-04-17T01:18:05.000Z,63.54
2023-04-17T01:20:32.980Z,63.13
2023-04-17T01:23:01.679Z,63.07
2023-04-17T01:25:29.215Z,62.92
2023-04-17T01:27:56.966Z,63.14
2023-04-17T01:30:24.570Z,63.18
2023-04-17T01:32:57.793Z,62.34
2023-04-17T01:35:25.186Z,62.81
2023-04-17T01:37:52.419Z,62.87
2023-04-17T01:40:19.700Z,61.85
2023-04-17T01:42:46.707Z,62.12
2023-04-17T01:45:13.738Z,63.53
2023-04-17T01:47:41.288Z,63.81
2023-04-17T01:50:12.051Z,64.17
2023-04-17T01:52:40.223Z,62.40
2023-04-17T01:55:07.342Z,62.41
2023-04-17T01:57:34.565Z,62.74
2023-04-17T02:00:01.965Z,62.25
2023-04-17T02:02:40.125Z,62.22
2023-04-17T02:05:08.018Z,62.47
2023-04-17T02:07:34.925Z,62.79
2023-04-17T02:10:02.007Z,62.64
2023-04-17T02:12:29.142Z,63.07
2023-04-17T02:15:01.049Z,63.63
2023-04-17T02:17:28.416Z,63.83
2023-04-17T02:19:55.939Z,63.85
2023-04-17T02:22:23.478Z,63.63
2023-04-17T02:24:51.642Z,63.57
2023-04-17T02:27:19.746Z,64.21
2023-04-17T02:29:47.045Z,65.90
2023-04-17T02:32:16.980Z,64.58
2023-04-17T02:34:44.542Z,64.19
2023-04-17T02:37:13.848Z,63.44
2023-04-17T02:39:42.071Z,63.83
2023-04-17T02:42:10.315Z,64.51
2023-04-17T02:44:37.757Z,63.75
2023-04-17T02:47:05.088Z,63.92
2023-04-17T02:49:33.866Z,62.98
2023-04-17T02:52:01.195Z,62.77
2023-04-17T02:54:28.261Z,63.16
2023-04-17T02:56:58.721Z,62.52
2023-04-17T02:59:27.066Z,62.66
2023-04-17T03:01:54.193Z,62.89
2023-04-17T03:04:23.272Z,62.70
2023-04-17T03:06:51.718Z,63.05
2023-04-17T03:09:21.191Z,62.95
2023-04-17T03:11:50.460Z,63.76
2023-04-17T03:14:17.566Z,64.52
2023-04-17T03:16:44.770Z,64.58
2023-04-17T03:19:12.388Z,66.79
2023-04-17T03:21:39.661Z,67.22
2023-04-17T03:24:07.277Z,65.77
2023-04-17T03:26:34.204Z,64.69
2023-04-17T03:29:06.516Z,64.36
2023-04-17T03:31:34.157Z,63.73
2023-04-17T03:34:01.890Z,63.06
2023-04-17T03:36:29.033Z,63.51
2023-04-17T03:38:57.952Z,62.63
2023-04-17T03:41:25.158Z,63.10
2023-04-17T03:43:52.023Z,63.56
2023-04-17T03:46:19.114Z,64.96
2023-04-17T03:48:46.438Z,66.42
2023-04-17T03:51:13.736Z,65.40
2023-04-17T03:53:41.516Z,66.59
2023-04-17T03:56:11.853Z,66.85
2023-04-17T03:58:41.543Z,66.72
2023-04-17T04:01:12.730Z,65.61
2023-04-17T04:03:50.992Z,64.76
2023-04-17T04:06:20.637Z,65.21
2023-04-17T04:08:50.864Z,65.97
2023-04-17T04:11:18.232Z,66.37
2023-04-17T04:13:45.622Z,66.08
2023-04-17T04:16:13.098Z,66.10
2023-04-17T04:18:41.498Z,65.22
2023-04-17T04:21:08.828Z,64.76
2023-04-17T04:23:41.841Z,64.44
2023-04-17T04:26:11.958Z,65.88
2023-04-17T04:28:48.646Z,65.18
2023-04-17T04:31:21.469Z,64.49
2023-04-17T04:33:55.417Z,65.20
2023-04-17T04:36:24.413Z,65.47
2023-04-17T04:39:06.921Z,66.30
2023-04-17T04:41:38.350Z,68.50
2023-04-17T04:44:08.707Z,67.61
2023-04-17T04:46:39.009Z,66.70
2023-04-17T04:49:07.467Z,67.50
2023-04-17T04:51:36.627Z,66.67
2023-04-17T04:54:07.112Z,66.54
2023-04-17T04:56:45.107Z,66.49
2023-04-17T04:59:14.857Z,67.50
2023-04-17T05:01:48.216Z,67.29
2023-04-17T05:04:18.879Z,66.44
2023-04-17T05:06:50.159Z,65.73
2023-04-17T05:09:18.266Z,66.65
2023-04-17T05:11:47.450Z,68.64
2023-04-17T05:14:14.424Z,68.49
2023-04-17T05:16:43.590Z,68.28
2023-04-17T05:19:11.754Z,66.66
2023-04-17T05:22:01.288Z,67.85
2023-04-17T05:24:31.488Z,68.10
2023-04-17T05:26:58.760Z,67.77
2023-04-17T05:29:26.043Z,67.74
2023-04-17T05:31:54.353Z,68.13
2023-04-17T05:34:41.518Z,67.26
2023-04-17T05:37:09.806Z,66.23
2023-04-17T05:39:37.398Z,65.13
2023-04-17T05:42:04.496Z,65.10
2023-04-17T05:44:32.437Z,66.41
2023-04-17T05:47:00.408Z,67.47
2023-04-17T05:49:27.634Z,66.33
2023-04-17T05:51:55.452Z,65.97
2023-04-17T05:54:25.014Z,67.61
2023-04-17T05:56:53.124Z,67.26
2023-04-17T05:59:22.040Z,66.92
2023-04-17T06:01:51.249Z,65.51
2023-04-17T06:04:22.122Z,66.64
2023-04-17T06:06:51.254Z,65.95
2023-04-17T06:09:20.126Z,67.01
2023-04-17T06:11:49.434Z,67.80
2023-04-17T06:14:16.977Z,66.19
2023-04-17T06:16:44.167Z,67.21
2023-04-17T06:19:11.558Z,66.90
2023-04-17T06:21:39.272Z,66.49
2023-04-17T06:24:07.207Z,66.88
2023-04-17T06:26:34.609Z,67.73
2023-04-17T06:29:05.143Z,65.23
2023-04-17T06:31:34.622Z,64.45
2023-04-17T06:34:02.257Z,64.83
2023-04-17T06:36:35.020Z,64.72
2023-04-17T06:39:04.283Z,64.24
2023-04-17T06:41:32.941Z,63.66
2023-04-17T06:44:03.227Z,63.80
2023-04-17T06:46:45.234Z,63.17
2023-04-17T06:49:13.001Z,63.03
2023-04-17T06:51:40.356Z,62.16
2023-04-17T06:54:09.940Z,61.54
2023-04-17T06:56:37.106Z,62.80
2023-04-17T06:59:04.206Z,62.75
2023-04-17T07:01:31.745Z,62.62
2023-04-17T07:03:59.033Z,60.72
2023-04-17T07:06:26.841Z,61.17
2023-04-17T07:08:55.607Z,61.19
2023-04-17T07:11:24.103Z,60.74
2023-04-17T07:13:51.460Z,62.26
2023-04-17T07:16:18.460Z,61.76
2023-04-17T07:18:45.548Z,61.08
2023-04-17T07:21:14.004Z,61.04
2023-04-17T07:23:42.324Z,61.44
2023-04-17T07:26:11.192Z,62.71
2023-04-17T07:28:39.962Z,62.35
2023-04-17T07:31:09.103Z,61.62
2023-04-17T07:33:40.002Z,61.72
2023-04-17T07:36:11.676Z,63.21
2023-04-17T07:38:41.039Z,62.34
2023-04-17T07:41:08.980Z,63.07
2023-04-17T07:43:36.304Z,61.69
2023-04-17T07:46:03.150Z,61.17
2023-04-17T07:48:30.444Z,63.91
2023-04-17T07:51:02.428Z,62.36
2023-04-17T07:53:30.022Z,60.33
2023-04-17T07:55:58.683Z,59.62
2023-04-17T07:58:27.544Z,63.21
2023-04-17T08:00:54.961Z,61.52
2023-04-17T08:03:24.611Z,61.54
2023-04-17T08:05:54.366Z,58.37
2023-04-17T08:08:24.031Z,58.66
2023-04-17T08:10:51.162Z,60.22
2023-04-17T08:13:18.859Z,61.52
2023-04-17T08:15:47.021Z,61.67
2023-04-17T08:18:14.665Z,62.17
2023-04-17T08:20:42.271Z,60.64
2023-04-17T08:23:09.855Z,62.57
2023-04-17T08:25:37.005Z,61.84
2023-04-17T08:28:04.756Z,62.61
2023-04-17T08:30:32.693Z,63.70
2023-04-17T08:33:00.071Z,63.68
2023-04-17T08:35:27.641Z,60.40
2023-04-17T08:37:56.802Z,58.67
2023-04-17T08:40:26.310Z,60.83
2023-04-17T08:42:54.410Z,60.46
2023-04-17T08:45:26.769Z,59.73
2023-04-17T08:47:53.884Z,61.14
2023-04-17T08:50:22.574Z,60.57
2023-04-17T08:52:52.078Z,60.87
2023-04-17T08:55:21.532Z,60.23
2023-04-17T08:58:04.289Z,60.37
2023-04-17T09:00:37.340Z,60.18
2023-04-17T09:03:09.260Z,59.41
2023-04-17T09:05:38.222Z,58.73
2023-04-17T09:08:24.295Z,59.59
2023-04-17T09:10:56.107Z,60.11
2023-04-17T09:13:25.904Z,59.33
2023-04-17T09:16:09.710Z,58.88
2023-04-17T09:18:38.332Z,59.59
2023-04-17T09:21:07.627Z,59.06
2023-04-17T09:23:52.721Z,59.85
2023-04-17T09:26:23.540Z,57.14
2023-04-17T09:29:12.035Z,55.28
2023-04-17T09:31:42.570Z,55.53
2023-04-17T09:34:14.155Z,52.85
2023-04-17T09:36:43.375Z,52.60
2023-04-17T09:39:20.565Z,53.50
2023-04-17T09:41:48.417Z,53.53
2023-04-17T09:44:38.052Z,51.64
2023-04-17T09:47:05.668Z,51.63
2023-04-17T09:49:40.085Z,53.60
2023-04-17T09:52:07.550Z,53.28
2023-04-17T09:54:39.186Z,52.02
2023-04-17T09:57:11.150Z,52.60
2023-04-17T09:59:45.793Z,51.89
2023-04-17T10:02:14.686Z,49.81
2023-04-17T10:04:42.806Z,49.35
2023-04-17T10:07:10.702Z,45.91
2023-04-17T10:09:42.282Z,45.64
2023-04-17T10:12:18.832Z,42.67
